Latest Coastal Weather Observations for Gabo Island (VIC)

IDN60701

Issued at 2:02 am EDT Monday 27 March 2017 (issued every 10 minutes, with the page automatically refreshed every 10 minutes)

About coastal observations | Map of coastal stations | Coastal observations for NSW | Marine services | Other Formats
Station Details ID: 084016 Name: GABO ISLAND LIGHTHOUSE Lat: -37.57 Lon: 149.92 Height: 15.2 m
Data from the previous 72 hours. | See also: Recent months at Gabo Island (VIC)
Date/Time
EDT
Temp
°C
Wind Pressure Rain since
9am
mm
Weather Cloud Vis
km
Sea
Height
m
Swell
Dir  Spd
kts
Gust
kts
hPa Trend Height
m
Period
s
Dir
27/02:00am 19.7 NE 12 14 1013.6 - 0.0 - - - - - - -
27/01:30am 19.8 NNE 13 15 1013.9 - 0.0 - - - - - - -
27/01:00am 19.9 NNE 12 14 1014.4 - 0.0 - - - - - - -
27/12:30am 19.9 NNE 13 16 1014.6 - 0.0 - - - - - - -
27/12:00am 19.8 NNE 12 13 1014.8 - 0.0 - - - - - - -
 
Date/Time
EDT
Temp
°C
Wind Pressure Rain since
9am
mm
Weather Cloud Vis
km
Sea
Height
m
Swell
Dir  Spd
kts
Gust
kts
hPa Trend Height
m
Period
s
Dir
26/11:30pm 19.8 NNE 13 15 1015.1 - 0.0 - - - - - - -
26/11:00pm 19.7 NNE 12 13 1015.3 - 0.0 - - - - - - -
26/10:30pm 19.6 NNE 13 14 1015.5 - 0.0 - - - - - - -
26/10:00pm 19.7 NNE 14 15 1015.5 - 0.0 - - - - - - -
26/09:30pm 19.6 NNE 13 15 1015.4 - 0.0 - - - - - - -
26/09:00pm 19.6 NNE 12 14 1015.1 - 0.0 Fine Clear 30 <0.5 1.0 - -
26/08:30pm 19.6 NNE 11 14 1015.0 - 0.0 - - - - - - -
26/08:00pm 19.7 NNE 10 12 1014.8 - 0.0 - - - - - - -
26/07:30pm 19.8 NNE 9 10 1014.5 - 0.0 - - - - - - -
26/07:00pm 20.4 NE 10 11 1014.3 - 0.0 - - - - - - -
26/06:30pm 20.8 NE 9 11 1014.3 - 0.0 - - - - - - -
26/06:00pm 21.2 NNE 8 9 1014.3 - 0.0 - - - - - - -
26/05:30pm 21.6 NNE 7 8 1014.2 - 0.0 - - - - - - -
26/05:00pm 21.9 NNE 5 6 1014.2 - 0.0 - - - - - - -
26/04:30pm 22.0 NE 4 5 1014.1 - 0.0 - - - - - - -
26/04:00pm 22.1 E 4 5 1014.1 - 0.0 - - - - - - -
26/03:30pm 21.8 E 4 5 1014.4 - 0.0 - - - - - - -
26/03:00pm 21.6 S 4 5 1014.6 - 0.0 Fine Mostly clear 40 <0.1 1.0 - -
26/02:30pm 21.9 SSW 6 7 1014.8 - 0.0 - - - - - - -
26/02:00pm 21.9 SSW 4 6 1015.0 - 0.0 - - - - - - -
26/01:30pm 21.6 SW 5 6 1015.2 - 0.0 - - - - - - -
26/01:00pm 21.9 S 5 6 1015.5 - 0.0 - - - - - - -
26/12:30pm 22.2 S 5 6 1015.7 - 0.0 - - - - - - -
26/12:00pm 21.7 S 4 6 1015.8 - 0.0 - - - - - - -
26/11:30am 21.6 SW 5 6 1016.0 - 0.0 - - - - - - -
26/11:00am 22.5 W 7 9 1016.1 - 0.0 - - - - - - -
26/10:30am 21.9 W 7 9 1015.7 - 0.0 - - - - - - -
26/10:00am 19.9 W 8 9 1015.6 - 0.0 - - - - - - -
26/09:30am 18.5 W 8 9 1015.4 - 0.0 - - - - - - -
26/09:00am 18.3 W 7 9 1015.0 - 0.0 Fine Mostly cloudy 30 <0.5 1.0 - -
26/08:30am 17.7 SSW 5 5 1014.9 - 0.0 - - - - - - -
26/08:00am 17.7 WSW 5 6 1014.6 - 0.0 - - - - - - -
26/07:30am 17.3 WNW 2 4 1014.0 - 0.0 - - - - - - -
26/07:00am 16.8 WSW 4 5 1013.6 - 0.0 - - - - - - -
26/06:30am 16.8 SW 4 4 1013.2 - 0.0 - - - - - - -
26/06:00am 16.5 CALM 0 3 1012.9 - 0.0 - - - - - - -
26/05:30am 16.7 NE 2 4 1012.6 - 0.0 - - - - - - -
26/05:00am 16.3 WSW 1 3 1012.6 - 0.0 - - - - - - -
26/04:30am 16.0 NNE 3 4 1012.6 - 0.0 - - - - - - -
26/04:00am 16.6 CALM 0 0 1012.7 - 0.0 - - - - - - -
26/03:30am 16.7 WNW 5 7 1012.7 - 0.0 - - - - - - -
26/03:00am 16.0 SW 4 5 1012.8 - 0.0 Fine Mostly clear 20 <0.5 1.0 - -
26/02:30am 16.8 WSW 4 4 1012.9 - 0.0 - - - - - - -
26/02:00am 17.1 W 3 4 1012.9 - 0.0 - - - - - - -
26/01:30am 16.6 NNE 3 4 1013.1 - 0.0 - - - - - - -
26/01:00am 16.7 NE 3 4 1013.4 - 0.0 - - - - - - -
26/12:30am 17.0 CALM 0 2 1013.6 - 0.0 - - - - - - -
26/12:00am 16.4 N 3 5 1013.7 - 0.0 - - - - - - -
 
Date/Time
EDT
Temp
°C
Wind Pressure Rain since
9am
mm
Weather Cloud Vis
km
Sea
Height
m
Swell
Dir  Spd
kts
Gust
kts
hPa Trend Height
m
Period
s
Dir
25/11:30pm 16.9 CALM 0 0 1013.9 - 0.0 - - - - - - -
25/11:00pm 16.9 N 4 5 1014.1 - 0.0 - - - - - - -
25/10:30pm 16.8 NNE 5 6 1014.1 - 0.0 - - - - - - -
25/10:00pm 16.9 NNE 5 6 1014.0 - 0.0 - - - - - - -
25/09:30pm 17.0 CALM 0 0 1013.9 - 0.0 - - - - - - -
25/09:00pm 18.5 CALM 0 0 1013.6 - 0.0 Fine Mostly clear 30 <0.5 1.0 - -
25/08:30pm 17.9 N 5 7 1013.4 - 0.0 - - - - - - -
25/08:00pm 18.8 N 7 8 1013.1 - 0.0 - - - - - - -
25/07:30pm 18.9 N 8 9 1012.9 - 0.0 - - - - - - -
25/07:00pm 19.6 NNE 9 11 1012.7 - 0.0 - - - - - - -
25/06:30pm 19.8 N 8 9 1012.5 - 0.0 - - - - - - -
25/06:00pm 19.6 NNE 8 9 1012.3 - 0.0 - - - - - - -
25/05:30pm 20.3 NNE 7 8 1012.5 - 0.0 - - - - - - -
25/05:00pm 21.2 NNE 7 9 1012.4 - 0.0 - - - - - - -
25/04:30pm 21.1 NNE 10 11 1012.2 - 0.0 - - - - - - -
25/04:00pm 21.3 NNE 11 13 1012.3 - 0.0 - - - - - - -
25/03:30pm 21.3 NNE 11 14 1012.3 - 0.0 - - - - - - -
25/03:00pm 21.9 NNE 13 15 1012.4 - 0.0 - Mostly cloudy 20 1 1.0 - -
25/02:30pm 22.5 NNE 12 14 1012.6 - 0.0 - - - - - - -
25/02:00pm 21.4 NE 14 17 1012.7 - 0.0 - - - - - - -
25/01:30pm 21.3 NE 15 16 1012.9 - 0.0 - - - - - - -
25/01:00pm 21.6 NNE 14 19 1013.6 - 0.0 - - - - - - -
25/12:30pm 22.3 NNE 15 19 1013.7 - 0.0 - - - - - - -
25/12:00pm 21.6 NNE 17 21 1013.9 - 0.0 - - - - - - -
25/11:30am 20.4 NNE 12 17 1014.6 - 0.0 - - - - - - -
25/11:00am 20.0 N 13 17 1015.1 - 0.0 - - - - - - -
25/10:30am 19.6 NNE 17 20 1014.6 - 0.0 - - - - - - -
25/10:00am 19.2 NNE 15 19 1015.1 - 0.0 - - - - - - -
25/09:30am 19.1 NNE 18 23 1014.4 - 0.0 - - - - - - -
25/09:00am 18.9 NNE 19 25 1014.3 - 0.0 - - - - - - -
25/08:30am 18.7 NNE 17 23 1014.5 - 0.0 - - - - - - -
25/08:00am 18.4 NNE 16 22 1014.8 - 0.0 - - - - - - -
25/07:30am 18.2 NNE 16 19 1014.6 - 0.0 - - - - - - -
25/07:00am 18.2 NNE 15 19 1015.0 - 0.0 - - - - - - -
25/06:30am 18.1 NNE 12 14 1015.5 - 0.0 - - - - - - -
25/06:00am 18.3 N 11 15 1015.4 - 0.0 - - - - - - -
25/05:30am 18.3 NNE 13 16 1015.2 - 0.0 - - - - - - -
25/05:00am 18.1 NNE 11 13 1015.5 - 0.0 - - - - - - -
25/04:30am 18.0 NNE 7 10 1015.9 - 0.0 - - - - - - -
25/04:00am 18.4 NNE 11 13 1015.9 - 0.0 - - - - - - -
25/03:30am 18.2 N 7 9 1016.3 - 0.0 - - - - - - -
25/03:00am 18.7 NNE 10 12 1016.8 - 0.0 Fine Partly cloudy 30 1 1.0 - -
25/02:30am 19.0 NNE 13 16 1016.9 - 0.0 - - - - - - -
25/02:00am 19.0 N 6 14 1018.0 - 0.0 - - - - - - -
25/01:30am 19.2 NNE 15 18 1017.6 - 0.0 - - - - - - -
25/01:00am 19.3 NE 15 20 1018.1 - 0.0 - - - - - - -
25/12:30am 19.4 NE 17 21 1018.2 - 0.0 - - - - - - -
25/12:00am 19.3 NE 18 21 1018.3 - 0.0 - - - - - - -
 
Date/Time
EDT
Temp
°C
Wind Pressure Rain since
9am
mm
Weather Cloud Vis
km
Sea
Height
m
Swell
Dir  Spd
kts
Gust
kts
hPa Trend Height
m
Period
s
Dir
24/11:30pm 19.3 NE 17 21 1018.9 - 0.0 - - - - - - -
24/11:00pm 19.1 NE 17 19 1019.3 - 0.0 - - - - - - -
24/10:30pm 19.2 NE 17 19 1019.5 - 0.0 - - - - - - -
24/10:00pm 19.2 ENE 16 19 1019.5 - 0.0 - - - - - - -
24/09:30pm 19.1 ENE 15 17 1020.0 - 0.0 - - - - - - -
24/09:00pm 19.1 ENE 14 16 1020.4 - 0.0 Fine Mostly cloudy 30 1 1.0 - -
24/08:30pm 19.1 ENE 15 17 1020.1 - 0.0 - - - - - - -
24/08:00pm 19.0 ENE 14 16 1019.8 - 0.0 - - - - - - -
24/07:30pm 19.1 ENE 13 15 1019.8 - 0.0 - - - - - - -
24/07:00pm 19.2 ENE 13 14 1019.8 - 0.0 - - - - - - -
24/06:30pm 19.0 E 12 14 1019.8 - 0.0 - - - - - - -
24/06:00pm 19.4 E 10 13 1020.1 - 0.0 - - - - - - -
24/05:30pm 19.5 ENE 11 13 1019.9 - 0.0 - - - - - - -
24/05:00pm 20.0 ENE 13 15 1019.7 - 0.0 - - - - - - -
24/04:30pm 20.3 E 12 14 1019.5 - 0.0 - - - - - - -
24/04:00pm 20.3 E 11 14 1019.5 - 0.0 - - - - - - -
24/03:30pm 20.8 E 9 12 1020.1 - 0.0 - - - - - - -
24/03:00pm 21.3 E 7 9 1020.4 - 0.0 Fine Mostly cloudy 40 1 1.0 - -
24/02:30pm 21.2 E 8 10 1020.9 - 0.0 - - - - - - -
24/02:00pm 21.4 E 7 9 1021.2 - 0.0 - - - - - - -
24/01:30pm 20.7 E 6 9 1021.7 - 0.0 - - - - - - -
24/01:00pm 20.0 SSW 4 5 1022.1 - 0.0 - - - - - - -
24/12:30pm 20.2 SSW 5 6 1022.4 - 0.0 - - - - - - -
24/12:00pm 19.2 SW 4 5 1022.4 - 0.0 - - - - - - -
24/11:30am 18.7 SW 5 6 1022.7 - 0.0 - - - - - - -
24/11:00am 19.1 SW 5 7 1022.6 - 0.0 - - - - - - -
24/10:30am 18.9 W 4 6 1022.4 - 0.0 - - - - - - -
24/10:00am 18.0 WNW 8 10 1022.4 - 0.0 - - - - - - -
24/09:30am 17.9 W 7 9 1022.2 - 0.0 - - - - - - -
24/09:00am 17.2 WNW 7 10 1021.8 - 3.6 Mist Mostly cloudy 10 1 1.0 - -
24/08:30am 16.4 WNW 8 9 1021.8 - 3.6 - - - - - - -
24/08:00am 16.8 W 8 9 1021.7 - 3.6 - - - - - - -
24/07:30am 16.5 WNW 8 9 1021.6 - 3.6 - - - - - - -
24/07:00am 16.9 W 8 11 1021.2 - 3.6 - - - - - - -
24/06:30am 17.6 W 9 11 1021.1 - 3.6 - - - - - - -
24/06:00am 18.6 ESE 6 11 1020.8 - 3.6 - - - - - - -
24/05:30am 18.6 ESE 8 10 1020.7 - 3.6 - - - - - - -
24/05:00am 18.8 E 8 11 1020.7 - 3.6 - - - - - - -
24/04:30am 18.4 ESE 10 12 1020.8 - 3.6 - - - - - - -
24/04:00am 17.9 ESE 11 16 1020.7 - 3.6 - - - - - - -
24/03:30am 17.9 SSE 8 12 1020.8 - 3.2 - - - - - - -
24/03:00am 18.6 ESE 11 15 1020.8 - 3.0 - - - - - - -
24/02:30am 18.1 SE 4 9 1021.4 - 3.0 - - - - - - -

Other Formats:

Comma delimited format used in spreadsheet applications
http://www.bom.gov.au/fwo/IDN60701/IDN60701.94933.axf

JavaScript Object Notation format (JSON) in row-major order
http://www.bom.gov.au/fwo/IDN60701/IDN60701.94933.json